sensor_id;sensor_type;location;lat;lon;timestamp;pressure;altitude;pressure_sealevel;temperature;humidity
21760;BME280;11041;50.854;20.580;2023-03-30T00:01:08;98792.75;;;1.06;67.61
21760;BME280;11041;50.854;20.580;2023-03-30T00:03:37;98784.66;;;1.06;67.46
21760;BME280;11041;50.854;20.580;2023-03-30T00:06:10;98808.47;;;1.31;67.78
21760;BME280;11041;50.854;20.580;2023-03-30T00:08:37;98776.38;;;1.18;67.25
21760;BME280;11041;50.854;20.580;2023-03-30T00:11:09;98782.78;;;1.34;67.09
21760;BME280;11041;50.854;20.580;2023-03-30T00:13:38;98797.81;;;1.46;67.16
21760;BME280;11041;50.854;20.580;2023-03-30T00:16:10;98756.41;;;1.24;66.71
21760;BME280;11041;50.854;20.580;2023-03-30T00:18:38;98774.72;;;1.39;67.11
21760;BME280;11041;50.854;20.580;2023-03-30T00:21:07;98767.41;;;1.39;67.02
21760;BME280;11041;50.854;20.580;2023-03-30T00:23:38;98772.91;;;1.44;67.14
21760;BME280;11041;50.854;20.580;2023-03-30T00:26:04;98749.00;;;1.41;66.63
21760;BME280;11041;50.854;20.580;2023-03-30T00:28:32;98775.19;;;1.58;65.75
21760;BME280;11041;50.854;20.580;2023-03-30T00:31:00;98766.56;;;1.66;65.82
21760;BME280;11041;50.854;20.580;2023-03-30T00:33:26;98755.28;;;1.74;64.69
21760;BME280;11041;50.854;20.580;2023-03-30T00:35:55;98765.69;;;1.87;65.50
21760;BME280;11041;50.854;20.580;2023-03-30T00:38:23;98750.53;;;1.86;65.34
21760;BME280;11041;50.854;20.580;2023-03-30T00:40:58;98778.31;;;2.09;64.51
21760;BME280;11041;50.854;20.580;2023-03-30T00:43:26;98746.81;;;1.98;64.43
21760;BME280;11041;50.854;20.580;2023-03-30T00:45:56;98786.03;;;2.22;63.81
21760;BME280;11041;50.854;20.580;2023-03-30T00:48:30;98751.22;;;2.09;64.30
21760;BME280;11041;50.854;20.580;2023-03-30T00:51:03;98777.66;;;2.24;63.30
21760;BME280;11041;50.854;20.580;2023-03-30T00:53:42;98767.66;;;2.29;63.58
21760;BME280;11041;50.854;20.580;2023-03-30T00:56:15;98757.84;;;2.23;64.34
21760;BME280;11041;50.854;20.580;2023-03-30T00:58:43;98775.84;;;2.40;64.14
21760;BME280;11041;50.854;20.580;2023-03-30T01:01:14;98760.97;;;2.47;62.96
21760;BME280;11041;50.854;20.580;2023-03-30T01:03:49;98760.75;;;2.54;62.91
21760;BME280;11041;50.854;20.580;2023-03-30T01:06:18;98761.00;;;2.52;62.81
21760;BME280;11041;50.854;20.580;2023-03-30T01:08:56;98761.06;;;2.58;62.54
21760;BME280;11041;50.854;20.580;2023-03-30T01:11:26;98732.47;;;2.45;62.21
21760;BME280;11041;50.854;20.580;2023-03-30T01:14:04;98735.78;;;2.52;61.97
21760;BME280;11041;50.854;20.580;2023-03-30T01:40:58;98720.09;;;2.64;62.18
21760;BME280;11041;50.854;20.580;2023-03-30T01:43:17;98725.63;;;2.80;62.16
21760;BME280;11041;50.854;20.580;2023-03-30T01:46:15;98706.00;;;2.62;62.27
21760;BME280;11041;50.854;20.580;2023-03-30T01:54:52;98704.38;;;2.66;62.51
21760;BME280;11041;50.854;20.580;2023-03-30T01:57:34;98719.63;;;2.77;62.62
21760;BME280;11041;50.854;20.580;2023-03-30T02:00:10;98680.75;;;2.62;62.67
21760;BME280;11041;50.854;20.580;2023-03-30T02:02:56;98709.59;;;2.78;62.74
21760;BME280;11041;50.854;20.580;2023-03-30T02:05:26;98702.00;;;2.80;62.90
21760;BME280;11041;50.854;20.580;2023-03-30T02:08:03;98703.34;;;2.77;63.36
21760;BME280;11041;50.854;20.580;2023-03-30T02:10:34;98706.06;;;2.72;62.90
21760;BME280;11041;50.854;20.580;2023-03-30T02:13:02;98696.00;;;2.68;63.57
21760;BME280;11041;50.854;20.580;2023-03-30T02:15:38;98689.75;;;2.62;63.63
21760;BME280;11041;50.854;20.580;2023-03-30T02:18:07;98693.53;;;2.66;63.32
21760;BME280;11041;50.854;20.580;2023-03-30T02:20:36;98680.53;;;2.73;63.24
21760;BME280;11041;50.854;20.580;2023-03-30T02:23:05;98688.44;;;2.75;63.45
21760;BME280;11041;50.854;20.580;2023-03-30T02:25:34;98699.31;;;2.85;63.26
21760;BME280;11041;50.854;20.580;2023-03-30T02:28:06;98683.03;;;2.85;62.61
21760;BME280;11041;50.854;20.580;2023-03-30T02:30:38;98690.91;;;2.87;62.53
21760;BME280;11041;50.854;20.580;2023-03-30T02:33:12;98683.84;;;2.91;62.00
21760;BME280;11041;50.854;20.580;2023-03-30T02:36:31;98709.16;;;3.07;62.21
21760;BME280;11041;50.854;20.580;2023-03-30T02:39:10;98681.69;;;2.98;61.89
21760;BME280;11041;50.854;20.580;2023-03-30T02:45:17;98708.09;;;3.18;61.84
21760;BME280;11041;50.854;20.580;2023-03-30T02:51:18;98686.88;;;3.10;61.88
21760;BME280;11041;50.854;20.580;2023-03-30T02:56:49;98690.72;;;3.19;62.42
21760;BME280;11041;50.854;20.580;2023-03-30T02:59:29;98683.91;;;3.11;61.75
21760;BME280;11041;50.854;20.580;2023-03-30T03:02:22;98657.31;;;3.03;61.43
21760;BME280;11041;50.854;20.580;2023-03-30T03:04:51;98670.88;;;3.08;61.94
21760;BME280;11041;50.854;20.580;2023-03-30T03:07:21;98673.31;;;3.05;62.21
21760;BME280;11041;50.854;20.580;2023-03-30T03:09:50;98653.50;;;2.99;61.75
21760;BME280;11041;50.854;20.580;2023-03-30T03:12:17;98657.81;;;3.00;61.90
21760;BME280;11041;50.854;20.580;2023-03-30T03:14:43;98664.66;;;3.13;62.68
21760;BME280;11041;50.854;20.580;2023-03-30T03:17:10;98650.78;;;2.99;62.55
21760;BME280;11041;50.854;20.580;2023-03-30T03:19:38;98639.38;;;2.97;62.50
21760;BME280;11041;50.854;20.580;2023-03-30T03:22:05;98651.88;;;3.03;62.87
21760;BME280;11041;50.854;20.580;2023-03-30T03:24:31;98646.97;;;2.95;63.59
21760;BME280;11041;50.854;20.580;2023-03-30T03:26:59;98650.22;;;3.02;62.43
21760;BME280;11041;50.854;20.580;2023-03-30T03:29:26;98639.91;;;2.89;62.60
21760;BME280;11041;50.854;20.580;2023-03-30T03:31:53;98631.47;;;2.85;63.39
21760;BME280;11041;50.854;20.580;2023-03-30T03:34:19;98635.84;;;2.91;63.53
21760;BME280;11041;50.854;20.580;2023-03-30T03:36:46;98634.47;;;2.89;63.74
21760;BME280;11041;50.854;20.580;2023-03-30T03:39:12;98649.97;;;2.98;63.77
21760;BME280;11041;50.854;20.580;2023-03-30T03:41:39;98625.22;;;2.85;64.44
21760;BME280;11041;50.854;20.580;2023-03-30T03:44:05;98640.47;;;2.96;63.70
21760;BME280;11041;50.854;20.580;2023-03-30T03:46:32;98638.81;;;2.90;63.92
21760;BME280;11041;50.854;20.580;2023-03-30T03:48:58;98627.13;;;2.84;64.34
21760;BME280;11041;50.854;20.580;2023-03-30T03:51:25;98626.59;;;2.87;64.25
21760;BME280;11041;50.854;20.580;2023-03-30T03:53:54;98642.06;;;2.92;64.19
21760;BME280;11041;50.854;20.580;2023-03-30T03:56:21;98614.94;;;2.87;63.52
21760;BME280;11041;50.854;20.580;2023-03-30T03:58:47;98633.94;;;3.02;63.59
21760;BME280;11041;50.854;20.580;2023-03-30T04:01:13;98611.13;;;2.88;64.21
21760;BME280;11041;50.854;20.580;2023-03-30T04:03:40;98634.75;;;3.03;64.36
21760;BME280;11041;50.854;20.580;2023-03-30T04:06:07;98603.53;;;2.90;63.96
21760;BME280;11041;50.854;20.580;2023-03-30T04:08:33;98611.66;;;2.90;64.18
21760;BME280;11041;50.854;20.580;2023-03-30T04:11:06;98605.97;;;2.91;64.04
21760;BME280;11041;50.854;20.580;2023-03-30T04:13:34;98591.84;;;2.84;64.07
21760;BME280;11041;50.854;20.580;2023-03-30T04:16:01;98614.41;;;3.00;64.57
21760;BME280;11041;50.854;20.580;2023-03-30T04:18:29;98622.28;;;2.96;64.22
21760;BME280;11041;50.854;20.580;2023-03-30T04:21:01;98619.28;;;2.98;64.21
21760;BME280;11041;50.854;20.580;2023-03-30T04:23:29;98606.25;;;2.90;64.29
21760;BME280;11041;50.854;20.580;2023-03-30T04:26:04;98616.28;;;2.94;64.27
21760;BME280;11041;50.854;20.580;2023-03-30T04:28:33;98599.16;;;2.84;64.68
21760;BME280;11041;50.854;20.580;2023-03-30T04:31:03;98620.91;;;2.89;64.85
21760;BME280;11041;50.854;20.580;2023-03-30T04:33:31;98606.78;;;2.82;64.76
21760;BME280;11041;50.854;20.580;2023-03-30T04:36:00;98596.72;;;2.77;65.25
21760;BME280;11041;50.854;20.580;2023-03-30T04:38:27;98606.50;;;2.83;65.49
21760;BME280;11041;50.854;20.580;2023-03-30T04:40:55;98578.53;;;2.62;65.49
21760;BME280;11041;50.854;20.580;2023-03-30T04:43:23;98586.13;;;2.70;65.50
21760;BME280;11041;50.854;20.580;2023-03-30T04:45:51;98579.59;;;2.61;65.85
21760;BME280;11041;50.854;20.580;2023-03-30T04:48:20;98596.97;;;2.65;65.76
21760;BME280;11041;50.854;20.580;2023-03-30T04:50:50;98600.50;;;2.66;65.89
21760;BME280;11041;50.854;20.580;2023-03-30T04:53:17;98592.88;;;2.58;65.91
21760;BME280;11041;50.854;20.580;2023-03-30T04:55:49;98591.25;;;2.62;66.76
21760;BME280;11041;50.854;20.580;2023-03-30T04:58:16;98568.41;;;2.47;66.97
21760;BME280;11041;50.854;20.580;2023-03-30T05:00:43;98565.16;;;2.45;66.75
21760;BME280;11041;50.854;20.580;2023-03-30T05:03:09;98584.19;;;2.61;67.13
21760;BME280;11041;50.854;20.580;2023-03-30T05:05:36;98570.06;;;2.43;67.20
21760;BME280;11041;50.854;20.580;2023-03-30T05:08:03;98566.22;;;2.39;67.82
21760;BME280;11041;50.854;20.580;2023-03-30T05:10:30;98553.72;;;2.28;68.48
21760;BME280;11041;50.854;20.580;2023-03-30T05:12:56;98555.34;;;2.24;68.59
21760;BME280;11041;50.854;20.580;2023-03-30T05:15:23;98567.50;;;2.21;68.35
21760;BME280;11041;50.854;20.580;2023-03-30T05:17:49;98580.00;;;2.27;68.71
21760;BME280;11041;50.854;20.580;2023-03-30T05:20:16;98596.88;;;2.45;68.73
21760;BME280;11041;50.854;20.580;2023-03-30T05:22:43;98568.69;;;2.41;69.16
21760;BME280;11041;50.854;20.580;2023-03-30T05:25:12;98599.66;;;2.60;68.57
21760;BME280;11041;50.854;20.580;2023-03-30T05:27:39;98587.19;;;2.69;68.23
21760;BME280;11041;50.854;20.580;2023-03-30T05:30:06;98580.44;;;2.82;68.31
21760;BME280;11041;50.854;20.580;2023-03-30T05:32:33;98560.34;;;2.78;66.82
21760;BME280;11041;50.854;20.580;2023-03-30T05:35:00;98551.66;;;2.81;67.30
21760;BME280;11041;50.854;20.580;2023-03-30T05:37:26;98575.84;;;2.98;67.18
21760;BME280;11041;50.854;20.580;2023-03-30T05:39:53;98578.31;;;3.05;67.01
21760;BME280;11041;50.854;20.580;2023-03-30T05:42:20;98558.50;;;2.99;66.98
21760;BME280;11041;50.854;20.580;2023-03-30T05:44:47;98549.53;;;2.98;66.53
21760;BME280;11041;50.854;20.580;2023-03-30T05:47:13;98552.81;;;3.11;66.36
21760;BME280;11041;50.854;20.580;2023-03-30T05:49:42;98556.06;;;3.18;65.79
21760;BME280;11041;50.854;20.580;2023-03-30T05:52:09;98573.97;;;3.39;65.70
21760;BME280;11041;50.854;20.580;2023-03-30T05:54:36;98565.53;;;3.46;65.83
21760;BME280;11041;50.854;20.580;2023-03-30T05:57:03;98563.91;;;3.50;64.91
21760;BME280;11041;50.854;20.580;2023-03-30T05:59:29;98562.00;;;3.51;64.49
21760;BME280;11041;50.854;20.580;2023-03-30T06:01:56;98563.09;;;3.50;64.96
21760;BME280;11041;50.854;20.580;2023-03-30T06:04:23;98551.41;;;3.39;63.90
21760;BME280;11041;50.854;20.580;2023-03-30T06:06:49;98580.19;;;3.60;64.15
21760;BME280;11041;50.854;20.580;2023-03-30T06:09:16;98556.84;;;3.54;64.34
21760;BME280;11041;50.854;20.580;2023-03-30T06:11:42;98565.25;;;3.68;65.32
21760;BME280;11041;50.854;20.580;2023-03-30T06:14:09;98563.84;;;3.81;65.13
21760;BME280;11041;50.854;20.580;2023-03-30T06:16:36;98568.72;;;3.84;65.19
21760;BME280;11041;50.854;20.580;2023-03-30T06:19:03;98537.25;;;3.78;64.57
21760;BME280;11041;50.854;20.580;2023-03-30T06:21:29;98572.22;;;4.05;64.49
21760;BME280;11041;50.854;20.580;2023-03-30T06:23:56;98542.59;;;3.98;64.27
21760;BME280;11041;50.854;20.580;2023-03-30T06:26:22;98563.19;;;4.20;65.29
21760;BME280;11041;50.854;20.580;2023-03-30T06:28:49;98565.34;;;4.23;64.52
21760;BME280;11041;50.854;20.580;2023-03-30T06:31:16;98545.75;;;4.21;64.80
21760;BME280;11041;50.854;20.580;2023-03-30T06:33:43;98542.75;;;4.27;64.88
21760;BME280;11041;50.854;20.580;2023-03-30T06:36:12;98559.84;;;4.38;63.97
21760;BME280;11041;50.854;20.580;2023-03-30T06:38:40;98537.84;;;4.30;64.28
21760;BME280;11041;50.854;20.580;2023-03-30T06:41:09;98554.91;;;4.51;64.55
21760;BME280;11041;50.854;20.580;2023-03-30T06:43:38;98541.31;;;4.45;64.43
21760;BME280;11041;50.854;20.580;2023-03-30T06:46:06;98542.66;;;4.48;63.45
21760;BME280;11041;50.854;20.580;2023-03-30T06:48:33;98561.41;;;4.55;63.95
21760;BME280;11041;50.854;20.580;2023-03-30T06:51:00;98562.19;;;4.60;63.76
21760;BME280;11041;50.854;20.580;2023-03-30T06:53:27;98561.34;;;4.65;64.57
21760;BME280;11041;50.854;20.580;2023-03-30T06:55:56;98534.97;;;4.60;64.74
21760;BME280;11041;50.854;20.580;2023-03-30T06:58:26;98556.91;;;4.79;64.38
21760;BME280;11041;50.854;20.580;2023-03-30T07:00:53;98536.25;;;4.73;65.33
21760;BME280;11041;50.854;20.580;2023-03-30T07:03:20;98525.84;;;4.80;64.10
21760;BME280;11041;50.854;20.580;2023-03-30T07:05:48;98541.22;;;5.05;64.04
21760;BME280;11041;50.854;20.580;2023-03-30T07:08:17;98532.78;;;5.02;63.72
21760;BME280;11041;50.854;20.580;2023-03-30T07:10:46;98542.22;;;5.15;63.60
21760;BME280;11041;50.854;20.580;2023-03-30T07:13:13;98509.63;;;5.04;63.91
21760;BME280;11041;50.854;20.580;2023-03-30T07:15:42;98536.94;;;5.28;63.39
21760;BME280;11041;50.854;20.580;2023-03-30T07:18:09;98527.91;;;5.33;63.43
21760;BME280;11041;50.854;20.580;2023-03-30T07:20:36;98500.66;;;5.33;63.48
21760;BME280;11041;50.854;20.580;2023-03-30T07:23:03;98508.78;;;5.38;62.99
21760;BME280;11041;50.854;20.580;2023-03-30T07:25:29;98521.97;;;5.55;63.10
21760;BME280;11041;50.854;20.580;2023-03-30T07:27:56;98525.50;;;5.55;62.86
21760;BME280;11041;50.854;20.580;2023-03-30T07:30:23;98537.13;;;5.66;62.87
21760;BME280;11041;50.854;20.580;2023-03-30T07:32:50;98513.72;;;5.60;63.36
21760;BME280;11041;50.854;20.580;2023-03-30T07:35:17;98517.78;;;5.63;63.51
21760;BME280;11041;50.854;20.580;2023-03-30T07:37:44;98538.06;;;5.81;62.57
21760;BME280;11041;50.854;20.580;2023-03-30T07:40:11;98522.78;;;5.80;62.93
21760;BME280;11041;50.854;20.580;2023-03-30T07:42:37;98524.50;;;5.75;62.75
21760;BME280;11041;50.854;20.580;2023-03-30T07:45:05;98527.84;;;5.91;62.46
21760;BME280;11041;50.854;20.580;2023-03-30T07:47:33;98519.22;;;6.08;62.37
21760;BME280;11041;50.854;20.580;2023-03-30T07:49:59;98501.78;;;6.09;60.99
21760;BME280;11041;50.854;20.580;2023-03-30T07:52:26;98500.59;;;6.15;61.54
21760;BME280;11041;50.854;20.580;2023-03-30T07:54:53;98504.22;;;6.30;62.28
21760;BME280;11041;50.854;20.580;2023-03-30T07:57:22;98516.94;;;6.58;61.08
21760;BME280;11041;50.854;20.580;2023-03-30T07:59:49;98500.88;;;6.57;60.69
21760;BME280;11041;50.854;20.580;2023-03-30T08:02:16;98511.56;;;6.72;61.23
21760;BME280;11041;50.854;20.580;2023-03-30T08:04:43;98493.03;;;6.69;61.17
21760;BME280;11041;50.854;20.580;2023-03-30T08:07:11;98491.03;;;6.75;61.16
21760;BME280;11041;50.854;20.580;2023-03-30T08:09:39;98492.16;;;6.93;60.55
21760;BME280;11041;50.854;20.580;2023-03-30T08:12:06;98502.22;;;7.11;61.07
21760;BME280;11041;50.854;20.580;2023-03-30T08:14:33;98479.53;;;7.11;61.23
21760;BME280;11041;50.854;20.580;2023-03-30T08:16:59;98475.03;;;7.20;60.94
21760;BME280;11041;50.854;20.580;2023-03-30T08:19:26;98497.97;;;7.52;60.28
21760;BME280;11041;50.854;20.580;2023-03-30T08:21:53;98489.47;;;7.67;58.83
21760;BME280;11041;50.854;20.580;2023-03-30T08:24:22;98475.31;;;7.65;59.17
21760;BME280;11041;50.854;20.580;2023-03-30T08:26:49;98489.69;;;7.71;59.61
21760;BME280;11041;50.854;20.580;2023-03-30T08:29:15;98448.56;;;7.62;60.44
21760;BME280;11041;50.854;20.580;2023-03-30T08:31:42;98472.78;;;7.82;60.52
21760;BME280;11041;50.854;20.580;2023-03-30T08:34:09;98468.53;;;7.90;59.30
21760;BME280;11041;50.854;20.580;2023-03-30T08:36:36;98481.38;;;8.17;59.54
21760;BME280;11041;50.854;20.580;2023-03-30T08:39:03;98472.66;;;8.15;59.79
21760;BME280;11041;50.854;20.580;2023-03-30T08:47:10;98464.53;;;8.51;59.90
21760;BME280;11041;50.854;20.580;2023-03-30T08:49:52;98449.00;;;8.47;59.16
21760;BME280;11041;50.854;20.580;2023-03-30T08:52:24;98472.16;;;8.63;59.14
21760;BME280;11041;50.854;20.580;2023-03-30T08:54:53;98450.88;;;8.60;59.18
21760;BME280;11041;50.854;20.580;2023-03-30T08:57:50;98454.13;;;8.85;58.18
21760;BME280;11041;50.854;20.580;2023-03-30T09:00:28;98456.28;;;8.88;58.91
21760;BME280;11041;50.854;20.580;2023-03-30T09:03:39;98460.19;;;8.95;58.36
21760;BME280;11041;50.854;20.580;2023-03-30T09:06:20;98463.44;;;8.98;58.50
21760;BME280;11041;50.854;20.580;2023-03-30T09:08:50;98466.03;;;9.03;58.50
21760;BME280;11041;50.854;20.580;2023-03-30T09:11:34;98431.84;;;9.00;58.29
21760;BME280;11041;50.854;20.580;2023-03-30T09:14:06;98441.91;;;9.13;57.68
21760;BME280;11041;50.854;20.580;2023-03-30T09:17:08;98427.72;;;9.11;58.31
21760;BME280;11041;50.854;20.580;2023-03-30T09:20:14;98420.69;;;9.19;58.76
21760;BME280;11041;50.854;20.580;2023-03-30T09:22:44;98411.25;;;9.34;57.95
21760;BME280;11041;50.854;20.580;2023-03-30T09:25:48;98436.69;;;9.66;57.46
21760;BME280;11041;50.854;20.580;2023-03-30T09:28:26;98433.16;;;9.74;56.84
21760;BME280;11041;50.854;20.580;2023-03-30T09:31:10;98419.34;;;9.79;57.71
21760;BME280;11041;50.854;20.580;2023-03-30T09:34:04;98429.06;;;10.02;57.56
21760;BME280;11041;50.854;20.580;2023-03-30T09:39:22;98405.03;;;10.17;55.80
21760;BME280;11041;50.854;20.580;2023-03-30T09:42:11;98422.84;;;10.28;56.58
21760;BME280;11041;50.854;20.580;2023-03-30T09:44:56;98417.19;;;10.33;55.45
21760;BME280;11041;50.854;20.580;2023-03-30T09:47:40;98406.06;;;10.30;56.58
21760;BME280;11041;50.854;20.580;2023-03-30T09:50:11;98374.34;;;10.15;57.18
21760;BME280;11041;50.854;20.580;2023-03-30T09:53:01;98395.88;;;10.30;57.76
21760;BME280;11041;50.854;20.580;2023-03-30T09:55:32;98382.31;;;10.42;57.10
21760;BME280;11041;50.854;20.580;2023-03-30T09:58:19;98381.84;;;10.49;57.12
21760;BME280;11041;50.854;20.580;2023-03-30T10:01:08;98360.81;;;10.53;55.88
21760;BME280;11041;50.854;20.580;2023-03-30T10:03:39;98344.97;;;10.59;55.87
21760;BME280;11041;50.854;20.580;2023-03-30T10:06:18;98350.97;;;10.61;56.76
21760;BME280;11041;50.854;20.580;2023-03-30T10:14:05;98372.75;;;10.83;56.15
21760;BME280;11041;50.854;20.580;2023-03-30T10:16:35;98343.84;;;10.69;56.79
21760;BME280;11041;50.854;20.580;2023-03-30T10:19:12;98349.31;;;10.69;57.02
21760;BME280;11041;50.854;20.580;2023-03-30T10:21:42;98338.00;;;10.70;57.04
21760;BME280;11041;50.854;20.580;2023-03-30T10:24:23;98354.78;;;10.86;57.40
21760;BME280;11041;50.854;20.580;2023-03-30T10:27:12;98337.84;;;10.75;57.28
21760;BME280;11041;50.854;20.580;2023-03-30T10:29:46;98328.63;;;10.71;57.02
21760;BME280;11041;50.854;20.580;2023-03-30T10:32:26;98339.28;;;10.81;56.93
21760;BME280;11041;50.854;20.580;2023-03-30T10:34:58;98337.31;;;10.82;57.40
21760;BME280;11041;50.854;20.580;2023-03-30T10:37:36;98328.78;;;10.75;57.59
21760;BME280;11041;50.854;20.580;2023-03-30T10:40:33;98333.94;;;10.76;58.06
21760;BME280;11041;50.854;20.580;2023-03-30T10:43:06;98327.53;;;10.63;58.33
21760;BME280;11041;50.854;20.580;2023-03-30T10:45:48;98321.03;;;10.68;58.79
21760;BME280;11041;50.854;20.580;2023-03-30T10:48:22;98328.31;;;10.73;58.98
21760;BME280;11041;50.854;20.580;2023-03-30T10:53:51;98322.94;;;10.85;59.55
21760;BME280;11041;50.854;20.580;2023-03-30T10:57:13;98311.38;;;11.09;58.17
21760;BME280;11041;50.854;20.580;2023-03-30T11:02:53;98279.72;;;11.33;57.91
21760;BME280;11041;50.854;20.580;2023-03-30T11:05:49;98280.97;;;11.44;58.10
21760;BME280;11041;50.854;20.580;2023-03-30T11:10:55;98265.78;;;11.67;56.61
21760;BME280;11041;50.854;20.580;2023-03-30T11:13:36;98253.22;;;11.79;54.14
21760;BME280;11041;50.854;20.580;2023-03-30T11:16:20;98261.75;;;12.07;54.28
21760;BME280;11041;50.854;20.580;2023-03-30T11:24:26;98236.50;;;12.05;52.66
21760;BME280;11041;50.854;20.580;2023-03-30T11:27:28;98257.75;;;12.04;53.14
21760;BME280;11041;50.854;20.580;2023-03-30T11:30:13;98232.00;;;11.79;54.27
21760;BME280;11041;50.854;20.580;2023-03-30T11:35:59;98272.78;;;12.07;53.11
21760;BME280;11041;50.854;20.580;2023-03-30T11:38:48;98236.97;;;11.86;54.41
21760;BME280;11041;50.854;20.580;2023-03-30T11:44:30;98226.38;;;11.97;54.01
21760;BME280;11041;50.854;20.580;2023-03-30T11:47:36;98255.72;;;12.13;53.99
21760;BME280;11041;50.854;20.580;2023-03-30T11:50:17;98208.97;;;12.05;55.28
21760;BME280;11041;50.854;20.580;2023-03-30T11:53:31;98223.69;;;12.42;54.58
21760;BME280;11041;50.854;20.580;2023-03-30T11:56:30;98206.16;;;12.59;52.69
21760;BME280;11041;50.854;20.580;2023-03-30T12:02:48;98219.88;;;13.05;51.87
21760;BME280;11041;50.854;20.580;2023-03-30T12:05:33;98214.13;;;13.22;52.08
21760;BME280;11041;50.854;20.580;2023-03-30T12:11:25;98178.25;;;13.59;50.22
21760;BME280;11041;50.854;20.580;2023-03-30T12:13:56;98169.78;;;13.68;49.72
21760;BME280;11041;50.854;20.580;2023-03-30T12:16:45;98175.06;;;13.73;50.39
21760;BME280;11041;50.854;20.580;2023-03-30T12:19:25;98173.59;;;13.63;49.98
21760;BME280;11041;50.854;20.580;2023-03-30T12:22:04;98129.38;;;13.47;50.57
21760;BME280;11041;50.854;20.580;2023-03-30T12:27:09;98140.84;;;13.90;49.70
21760;BME280;11041;50.854;20.580;2023-03-30T12:29:50;98146.75;;;14.04;48.82
21760;BME280;11041;50.854;20.580;2023-03-30T12:32:28;98149.25;;;14.09;48.37
21760;BME280;11041;50.854;20.580;2023-03-30T12:34:56;98169.41;;;14.10;48.91
21760;BME280;11041;50.854;20.580;2023-03-30T12:37:31;98179.34;;;13.98;48.02
21760;BME280;11041;50.854;20.580;2023-03-30T12:40:19;98172.97;;;13.82;48.48
21760;BME280;11041;50.854;20.580;2023-03-30T12:43:22;98149.13;;;13.49;49.48
21760;BME280;11041;50.854;20.580;2023-03-30T12:54:52;98176.22;;;12.82;51.00
21760;BME280;11041;50.854;20.580;2023-03-30T12:57:44;98159.31;;;12.59;51.92
21760;BME280;11041;50.854;20.580;2023-03-30T13:06:24;98158.75;;;12.66;52.42
21760;BME280;11041;50.854;20.580;2023-03-30T13:12:06;98142.78;;;12.71;52.61
21760;BME280;11041;50.854;20.580;2023-03-30T13:14:46;98142.44;;;12.73;52.18
21760;BME280;11041;50.854;20.580;2023-03-30T13:17:17;98146.09;;;12.77;52.20
21760;BME280;11041;50.854;20.580;2023-03-30T13:20:32;98148.19;;;12.92;51.45
21760;BME280;11041;50.854;20.580;2023-03-30T13:25:51;98150.00;;;12.76;51.94
21760;BME280;11041;50.854;20.580;2023-03-30T13:28:54;98159.41;;;12.63;52.75
21760;BME280;11041;50.854;20.580;2023-03-30T13:34:41;98147.94;;;12.48;52.57
21760;BME280;11041;50.854;20.580;2023-03-30T13:37:30;98123.00;;;12.32;52.83
21760;BME280;11041;50.854;20.580;2023-03-30T13:40:53;98109.91;;;12.29;52.80
21760;BME280;11041;50.854;20.580;2023-03-30T13:50:22;98088.94;;;11.91;54.07
21760;BME280;11041;50.854;20.580;2023-03-30T13:52:53;98099.75;;;11.97;54.21
21760;BME280;11041;50.854;20.580;2023-03-30T13:55:34;98103.97;;;11.94;55.06
21760;BME280;11041;50.854;20.580;2023-03-30T13:58:49;98121.47;;;12.10;54.64
21760;BME280;11041;50.854;20.580;2023-03-30T14:01:14;98093.75;;;11.94;54.42
21760;BME280;11041;50.854;20.580;2023-03-30T14:03:57;98111.56;;;12.09;54.40
21760;BME280;11041;50.854;20.580;2023-03-30T14:06:29;98097.91;;;12.01;55.56
21760;BME280;11041;50.854;20.580;2023-03-30T14:09:17;98096.75;;;12.02;55.18
21760;BME280;11041;50.854;20.580;2023-03-30T14:11:52;98111.16;;;12.20;55.47
21760;BME280;11041;50.854;20.580;2023-03-30T14:14:33;98113.00;;;12.28;55.32
21760;BME280;11041;50.854;20.580;2023-03-30T14:17:20;98094.19;;;12.30;55.15
21760;BME280;11041;50.854;20.580;2023-03-30T14:20:12;98084.09;;;12.34;54.74
21760;BME280;11041;50.854;20.580;2023-03-30T14:22:47;98075.69;;;12.43;54.15
21760;BME280;11041;50.854;20.580;2023-03-30T14:25:36;98096.72;;;12.60;54.22
21760;BME280;11041;50.854;20.580;2023-03-30T14:30:50;98082.25;;;12.50;54.41
21760;BME280;11041;50.854;20.580;2023-03-30T14:33:17;98089.25;;;12.60;54.36
21760;BME280;11041;50.854;20.580;2023-03-30T14:35:53;98080.66;;;12.49;54.70
21760;BME280;11041;50.854;20.580;2023-03-30T14:38:32;98079.28;;;12.55;54.16
21760;BME280;11041;50.854;20.580;2023-03-30T14:41:13;98074.09;;;12.54;54.44
21760;BME280;11041;50.854;20.580;2023-03-30T14:43:54;98091.56;;;12.58;54.01
21760;BME280;11041;50.854;20.580;2023-03-30T14:46:27;98067.09;;;12.44;54.56
21760;BME280;11041;50.854;20.580;2023-03-30T14:48:55;98072.16;;;12.42;54.33
21760;BME280;11041;50.854;20.580;2023-03-30T14:51:38;98065.38;;;12.27;54.92
21760;BME280;11041;50.854;20.580;2023-03-30T14:54:16;98082.47;;;12.33;55.35
21760;BME280;11041;50.854;20.580;2023-03-30T14:56:57;98069.47;;;12.21;55.90
21760;BME280;11041;50.854;20.580;2023-03-30T14:59:34;98055.00;;;12.00;56.77
21760;BME280;11041;50.854;20.580;2023-03-30T15:02:03;98052.00;;;11.92;56.56
21760;BME280;11041;50.854;20.580;2023-03-30T15:04:37;98046.22;;;11.85;56.73
21760;BME280;11041;50.854;20.580;2023-03-30T15:07:05;98051.09;;;11.88;57.49
21760;BME280;11041;50.854;20.580;2023-03-30T15:09:37;98060.94;;;11.89;57.77
21760;BME280;11041;50.854;20.580;2023-03-30T15:12:05;98054.84;;;11.84;58.48
21760;BME280;11041;50.854;20.580;2023-03-30T15:14:39;98043.19;;;11.66;58.48
21760;BME280;11041;50.854;20.580;2023-03-30T15:17:17;98053.97;;;11.71;58.72
21760;BME280;11041;50.854;20.580;2023-03-30T15:19:47;98038.38;;;11.63;58.47
21760;BME280;11041;50.854;20.580;2023-03-30T15:24:53;98046.06;;;11.69;59.59
21760;BME280;11041;50.854;20.580;2023-03-30T15:27:22;98029.56;;;11.69;59.26
21760;BME280;11041;50.854;20.580;2023-03-30T15:29:49;98038.63;;;11.70;59.77
21760;BME280;11041;50.854;20.580;2023-03-30T15:32:38;98041.22;;;11.66;59.54